Main page
METAR-TAF:

METAR-TAF

Airports :

Brighton City Airport (Shoreham Airport)

Brighton, England

latitude: 50-50N, longitude: 000-17W, elevation: 2 m

Current weather observation

The report was made 27 minutes ago, at 16:20 UTC
Wind 6 kt from the Northeast
Temperature 14°C
Humidity 82%
Pressure 1008 hPa
Visibility 10 km or more
no clouds below 1500 m and no cumulonimbus

METAR: EGKA 231620Z 05006KT CAVOK 14/11 Q1008

Time: 17:47 (16:47 UTC)

Forecast

The report was made 2 hours and 43 minutes ago, at 14:04 UTC
Forecast valid from 23 at 15 UTC to 23 at 19 UTC
Wind 8 kt from the Northeast
Visibility 10 km or more
Few clouds at a height of 1000 ft
Becoming
from 23 at 15 UTC to 23 at 18 UTC
Visibility: 6000 m
Broken clouds at a height of 900 ft
light rain

TAF: EGKA 231404Z 2315/2319 05008KT 9999 FEW010 BECMG 2315/2318 6000 -RA BKN009

Weather observations and forecasts of more than 4000 airports (METAR and TAF reports).

The available stations are represented by yellow and red dots on the map.

Hover mouse over dot to see the name of the station.

Then click to see weather observations and forecasts.

To change the map : click on the green buttons with a black cross to zoom in, on the green button with a dash to zoom out, or on the green arrows for adjacent maps.


METAR-TAF: